CheckWX is a tool to help pilots better visualize weather data.  It is not intended as a substitute for an official pre-flight weather briefing.

08:33:25 UTC

KVIS TAF
Visalia Municipal Airport
Visalia, California, USA
KVIS 210520Z 2106/2206 13005KT P6SM SCT200 FM211200 14003KT 5SM BR SCT200 TEMPO 2113/2117 2SM BR FM211800 15005KT P6SM FEW200

Nov-21@
06:00 UTC

Nov-21 @ 06:00 UTC

Nov-21@
12:00 UTC

Nov-21 @ 12:00 UTC

KVIS 210520Z 2106/2206 13005KT P6SM SCT200
Wind
  • 130° at 5 KTS
Cloud Levels
  • Scattered at 20,000' AGL

Nov-21@
12:00 UTC

Nov-21 @ 12:00 UTC

Nov-21@
18:00 UTC

Nov-21 @ 18:00 UTC

FM211200 14003KT 5SM BR SCT200

From

From Standard forecast or significant change

Wind
  • 140° at 3 KTS
Conditions
Mist
Cloud Levels
  • Scattered at 20,000' AGL

Nov-21@
13:00 UTC

Nov-21 @ 13:00 UTC

Nov-21@
17:00 UTC

Nov-21 @ 17:00 UTC

TEMPO 2113/2117 2SM BR

Temporary

Temporary Changes expected for less than half the time period

Conditions
Mist

Nov-21@
18:00 UTC

Nov-21 @ 18:00 UTC

Nov-22@
06:00 UTC

Nov-22 @ 06:00 UTC

FM211800 15005KT P6SM FEW200

From

From Standard forecast or significant change

Wind
  • 150° at 5 KTS
Cloud Levels
  • Few at 20,000' AGL